Time;durP1;ratioP1;P1;durP2;ratioP2;P2;SDS_P1;SDS_P2;PMS_P1;PMS_P2;Temp;Humidity;BMP_temperature;BMP_pressure;BME280_temperature;BME280_humidity;BME280_pressure;Samples;Min_cycle;Max_cycle;Signal;HPM_P1;HPM_P2
2023/02/22 00:03:00;;;;;;;;;;;;;;;6.69;100.00;101480.91;10498494;28;20318;-68
2023/02/22 00:08:03;;;;;;;;;;;;;;;6.80;100.00;101485.78;10499895;28;19931;-68
2023/02/22 00:13:07;;;;;;;;;;;;;;;6.77;100.00;101485.84;10499268;28;19991;-68
2023/02/22 00:18:12;;;;;;;;;;;;;;;6.94;100.00;101485.34;10499627;28;19978;-68
2023/02/22 00:23:17;;;;;;;;;;;;;;;7.13;100.00;101487.34;10481606;28;19970;-68
2023/02/22 00:28:20;;;;;;;;;;;;;;;6.66;100.00;101481.00;10499653;28;19925;-68
2023/02/22 00:33:22;;;;;;;;;;;;;;;6.97;100.00;101487.00;10479705;28;19925;-68
2023/02/22 00:38:24;;;;;;;;;;;;;;;7.10;100.00;101480.50;10491573;28;19924;-68
2023/02/22 00:43:26;;;;;;;;;;;;;;;6.84;100.00;101478.72;10454781;28;19978;-68
2023/02/22 00:48:28;;;;;;;;;;;;;;;6.83;100.00;101490.88;10497578;28;19932;-68
2023/02/22 00:53:31;;;;;;;;;;;;;;;6.81;100.00;101484.03;10478807;28;20289;-68
2023/02/22 00:58:33;;;;;;;;;;;;;;;6.83;100.00;101474.44;10498376;28;20372;-68
2023/02/22 01:03:40;;;;;;;;;;;;;;;6.84;100.00;101470.91;10498337;28;19928;-68
2023/02/22 01:08:43;;;;;;;;;;;;;;;6.58;100.00;101472.56;10498389;28;20291;-68
2023/02/22 01:13:45;;;;;;;;;;;;;;;6.63;100.00;101464.63;10480231;28;19932;-68
2023/02/22 01:18:47;;;;;;;;;;;;;;;6.94;100.00;101461.06;10498586;28;19950;-68
2023/02/22 01:23:50;;;;;;;;;;;;;;;6.92;100.00;101461.09;10496084;28;19925;-68
2023/02/22 01:28:53;;;;;;;;;;;;;;;6.92;100.00;101442.03;10497650;28;19928;-68
2023/02/22 01:33:55;;;;;;;;;;;;;;;6.81;100.00;101439.78;10497082;28;19928;-68
2023/02/22 01:38:57;;;;;;;;;;;;;;;6.58;100.00;101436.13;10480480;28;19970;-68
2023/02/22 01:44:16;;;;;;;;;;;;;;;6.47;100.00;101438.19;10496916;28;19970;-68
2023/02/22 01:49:18;;;;;;;;;;;;;;;6.67;100.00;101432.41;10480341;28;19974;-68
2023/02/22 01:54:24;;;;;;;;;;;;;;;6.58;100.00;101422.28;10484804;28;20436;-68
2023/02/22 01:59:27;;;;;;;;;;;;;;;6.55;100.00;101430.19;10486757;28;19970;-68
2023/02/22 02:04:30;;;;;;;;;;;;;;;6.48;100.00;101419.94;10504248;28;19924;-68
2023/02/22 02:09:35;;;;;;;;;;;;;;;6.50;100.00;101425.94;10486480;28;19931;-68
2023/02/22 02:14:39;;;;;;;;;;;;;;;6.88;100.00;101413.50;10486814;28;19924;-68
2023/02/22 02:19:54;;;;;;;;;;;;;;;6.81;100.00;101403.34;10486441;28;19932;-68
2023/02/22 02:24:59;;;;;;;;;;;;;;;6.60;100.00;101397.91;10504677;28;19924;-68
2023/02/22 02:30:30;;;;;;;;;;;;;;;6.47;100.00;101399.19;10502269;28;19950;-68
2023/02/22 02:35:42;;;;;;;;;;;;;;;6.38;100.00;101396.88;10487193;28;19925;-68
2023/02/22 02:40:46;;;;;;;;;;;;;;;6.26;100.00;101391.13;10502877;28;20367;-68
2023/02/22 02:45:50;;;;;;;;;;;;;;;6.09;100.00;101388.19;10503380;28;19979;-68
2023/02/22 02:50:53;;;;;;;;;;;;;;;6.17;100.00;101385.34;10468699;28;19978;-68
2023/02/22 02:55:57;;;;;;;;;;;;;;;6.14;100.00;101371.56;10502909;28;19924;-68
2023/02/22 03:01:01;;;;;;;;;;;;;;;6.27;100.00;101365.97;10502185;28;20371;-68
2023/02/22 03:06:12;;;;;;;;;;;;;;;6.16;100.00;101357.66;10485623;28;19924;-68
2023/02/22 03:11:15;;;;;;;;;;;;;;;5.54;100.00;101362.81;10483901;28;19958;-68
2023/02/22 03:16:36;;;;;;;;;;;;;;;5.71;100.00;101366.69;10502733;28;19928;-68
2023/02/22 03:21:57;;;;;;;;;;;;;;;5.71;100.00;101358.91;10501465;28;19932;-68
2023/02/22 03:27:01;;;;;;;;;;;;;;;5.45;100.00;101360.50;10502360;28;19924;-68
2023/02/22 03:32:06;;;;;;;;;;;;;;;5.46;100.00;101361.34;10482195;28;20403;-68
2023/02/22 03:37:15;;;;;;;;;;;;;;;5.27;100.00;101369.63;10484105;28;19924;-68
2023/02/22 03:42:20;;;;;;;;;;;;;;;5.54;100.00;101360.22;10483333;28;19932;-68
2023/02/22 03:47:24;;;;;;;;;;;;;;;5.77;100.00;101350.94;10482528;28;19929;-68
2023/02/22 03:52:26;;;;;;;;;;;;;;;5.90;100.00;101347.09;10441898;28;19939;-68
2023/02/22 03:57:30;;;;;;;;;;;;;;;5.41;100.00;101348.47;10458640;28;19925;-68
2023/02/22 04:02:32;;;;;;;;;;;;;;;5.28;100.00;101342.75;10467958;28;19932;-68
2023/02/22 04:07:35;;;;;;;;;;;;;;;5.02;100.00;101335.66;10482303;28;19928;-68
2023/02/22 04:12:37;;;;;;;;;;;;;;;5.48;100.00;101330.97;10499459;28;19924;-68
2023/02/22 04:17:39;;;;;;;;;;;;;;;5.39;100.00;101329.47;10499135;28;19986;-68
2023/02/22 04:22:41;;;;;;;;;;;;;;;5.31;100.00;101334.03;10497956;28;19931;-68
2023/02/22 04:27:43;;;;;;;;;;;;;;;5.35;100.00;101322.69;10498576;28;19925;-68
2023/02/22 04:32:46;;;;;;;;;;;;;;;5.55;100.00;101319.53;10480404;28;20322;-68
2023/02/22 04:37:48;;;;;;;;;;;;;;;5.63;100.00;101316.72;10499573;28;19978;-68
2023/02/22 04:42:50;;;;;;;;;;;;;;;5.77;100.00;101312.81;10480372;28;19974;-68
2023/02/22 04:47:52;;;;;;;;;;;;;;;5.55;100.00;101307.41;10498794;28;19952;-68
2023/02/22 04:52:55;;;;;;;;;;;;;;;5.34;100.00;101301.03;10479624;28;20336;-68
2023/02/22 04:57:57;;;;;;;;;;;;;;;5.63;100.00;101301.13;10497889;28;19931;-68
2023/02/22 05:02:59;;;;;;;;;;;;;;;5.74;100.00;101293.88;10498323;28;19970;-68
2023/02/22 05:08:02;;;;;;;;;;;;;;;5.36;100.00;101290.59;10498284;28;20307;-68
2023/02/22 05:13:05;;;;;;;;;;;;;;;5.01;100.00;101292.44;10497418;28;19928;-68
2023/02/22 05:18:07;;;;;;;;;;;;;;;4.92;100.00;101290.91;10498706;28;19932;-68
2023/02/22 05:23:09;;;;;;;;;;;;;;;5.25;100.00;101287.47;10496324;28;19928;-68
2023/02/22 05:28:12;;;;;;;;;;;;;;;5.19;100.00;101281.56;10501419;28;19925;-68
2023/02/22 05:33:14;;;;;;;;;;;;;;;5.07;100.00;101287.06;10504932;28;19970;-68
2023/02/22 05:38:16;;;;;;;;;;;;;;;5.25;100.00;101285.72;10488226;28;19924;-68
2023/02/22 05:43:18;;;;;;;;;;;;;;;5.24;100.00;101273.63;10487452;28;20386;-68
2023/02/22 05:48:21;;;;;;;;;;;;;;;5.32;100.00;101273.44;10505649;28;19924;-68
2023/02/22 05:53:23;;;;;;;;;;;;;;;5.43;100.00;101275.72;10505365;28;19925;-68
2023/02/22 05:58:26;;;;;;;;;;;;;;;5.31;100.00;101270.00;10487425;28;20397;-68
2023/02/22 06:03:28;;;;;;;;;;;;;;;5.43;100.00;101273.13;10503118;28;20322;-68
2023/02/22 06:08:30;;;;;;;;;;;;;;;5.49;100.00;101254.78;10505417;28;19973;-68
2023/02/22 06:13:32;;;;;;;;;;;;;;;5.31;100.00;101261.31;10503892;28;19982;-68
2023/02/22 06:18:34;;;;;;;;;;;;;;;5.51;100.00;101255.56;10503701;28;20315;-68
2023/02/22 06:23:36;;;;;;;;;;;;;;;5.49;100.00;101255.59;10504194;28;19929;-68
2023/02/22 06:28:39;;;;;;;;;;;;;;;5.75;100.00;101260.06;10503637;28;19950;-68
2023/02/22 06:33:41;;;;;;;;;;;;;;;5.56;100.00;101253.69;10504540;28;19932;-68
2023/02/22 06:38:43;;;;;;;;;;;;;;;5.73;100.00;101242.78;10502512;28;19928;-68
2023/02/22 06:43:46;;;;;;;;;;;;;;;5.80;100.00;101231.34;10504143;28;19931;-68
2023/02/22 06:48:50;;;;;;;;;;;;;;;5.68;100.00;101234.28;10484916;28;19925;-68
2023/02/22 06:53:52;;;;;;;;;;;;;;;5.62;100.00;101219.75;10503102;28;20189;-68
2023/02/22 06:58:55;;;;;;;;;;;;;;;5.63;100.00;101215.41;10502122;28;19951;-68
2023/02/22 07:03:57;;;;;;;;;;;;;;;5.37;100.00;101230.00;10485009;28;19974;-68
2023/02/22 07:09:00;;;;;;;;;;;;;;;5.58;100.00;101225.91;10502372;28;19925;-68
2023/02/22 07:14:02;;;;;;;;;;;;;;;5.42;100.00;101233.31;10502913;28;19925;-68
2023/02/22 07:19:04;;;;;;;;;;;;;;;5.33;100.00;101234.44;10499100;28;20399;-68
2023/02/22 07:24:06;;;;;;;;;;;;;;;5.42;100.00;101235.06;10501925;28;20291;-68
2023/02/22 07:29:10;;;;;;;;;;;;;;;5.47;100.00;101251.38;10500338;28;19928;-68
2023/02/22 07:34:13;;;;;;;;;;;;;;;5.52;100.00;101239.94;10501474;28;19990;-68
2023/02/22 07:39:15;;;;;;;;;;;;;;;5.81;100.00;101243.41;10499642;28;19924;-68
2023/02/22 07:44:17;;;;;;;;;;;;;;;5.69;100.00;101243.78;10501706;28;19928;-68
2023/02/22 07:49:19;;;;;;;;;;;;;;;5.94;100.00;101234.34;10498420;28;19924;-68
2023/02/22 07:54:21;;;;;;;;;;;;;;;6.05;100.00;101235.78;10500136;28;19947;-68
2023/02/22 07:59:24;;;;;;;;;;;;;;;5.92;100.00;101230.13;10498612;28;19929;-68
2023/02/22 08:04:26;;;;;;;;;;;;;;;6.02;100.00;101226.34;10500317;28;19925;-68
2023/02/22 08:09:28;;;;;;;;;;;;;;;6.08;100.00;101228.75;10499132;28;19931;-68
2023/02/22 08:14:30;;;;;;;;;;;;;;;5.97;100.00;101222.19;10486789;28;19947;-68
2023/02/22 08:19:33;;;;;;;;;;;;;;;6.16;100.00;101232.88;10464096;28;19928;-68
2023/02/22 08:24:35;;;;;;;;;;;;;;;6.41;100.00;101225.13;10496492;28;19928;-68
2023/02/22 08:29:37;;;;;;;;;;;;;;;6.38;100.00;101207.00;10497513;28;19924;-68
2023/02/22 08:34:39;;;;;;;;;;;;;;;6.36;100.00;101206.22;10457869;28;20363;-68
2023/02/22 08:39:42;;;;;;;;;;;;;;;6.57;100.00;101220.25;10465509;28;19925;-68
2023/02/22 08:44:44;;;;;;;;;;;;;;;6.36;100.00;101224.44;10468453;22;19933;-70
2023/02/22 08:49:46;;;;;;;;;;;;;;;6.45;100.00;101221.50;10460858;28;19967;-71
2023/02/22 08:54:49;;;;;;;;;;;;;;;6.67;100.00;101221.63;10498289;28;19924;-71
2023/02/22 08:59:52;;;;;;;;;;;;;;;6.92;100.00;101210.38;10498348;28;19925;-71
2023/02/22 09:04:54;;;;;;;;;;;;;;;7.03;100.00;101211.69;10494847;28;19932;-71
2023/02/22 09:09:56;;;;;;;;;;;;;;;7.36;100.00;101200.94;10497233;28;20043;-71
2023/02/22 09:14:59;;;;;;;;;;;;;;;7.36;100.00;101177.50;10497100;28;20355;-71
2023/02/22 09:20:01;;;;;;;;;;;;;;;7.33;100.00;101171.53;10493941;28;20429;-71
2023/02/22 09:25:03;;;;;;;;;;;;;;;7.18;100.00;101168.63;10496532;28;20260;-71
2023/02/22 09:30:25;;;;;;;;;;;;;;;8.05;100.00;101160.88;10498020;28;20395;-71
2023/02/22 09:35:27;;;;;;;;;;;;;;;7.82;100.00;101167.88;10512734;28;19924;-71
2023/02/22 09:40:30;;;;;;;;;;;;;;;7.98;100.00;101165.53;10478472;28;20409;-71
2023/02/22 09:45:56;;;;;;;;;;;;;;;7.98;100.00;101159.44;10510165;28;19924;-71
2023/02/22 09:50:59;;;;;;;;;;;;;;;8.39;100.00;101141.22;10510861;28;19968;-71
2023/02/22 09:56:06;;;;;;;;;;;;;;;8.45;100.00;101137.53;10512012;28;19924;-71
2023/02/22 10:01:25;;;;;;;;;;;;;;;8.63;100.00;101133.28;10513568;28;19924;-71
2023/02/22 10:06:28;;;;;;;;;;;;;;;8.71;100.00;101120.75;10497775;28;19931;-71
2023/02/22 10:11:31;;;;;;;;;;;;;;;9.57;100.00;101115.94;10497426;28;19932;-71
2023/02/22 10:16:35;;;;;;;;;;;;;;;9.49;100.00;101116.28;10505085;28;19978;-71
2023/02/22 10:21:47;;;;;;;;;;;;;;;9.14;100.00;101121.38;10518867;28;20413;-71
2023/02/22 10:26:49;;;;;;;;;;;;;;;9.81;100.00;101119.09;10502430;28;19978;-71
2023/02/22 10:31:59;;;;;;;;;;;;;;;11.07;100.00;101109.19;10504176;28;19932;-71
2023/02/22 10:37:16;;;;;;;;;;;;;;;11.90;100.00;101109.75;10485541;28;20318;-71
2023/02/22 10:42:18;;;;;;;;;;;;;;;11.84;95.38;101102.25;10483690;28;19968;-71
2023/02/22 10:47:20;;;;;;;;;;;;;;;12.07;93.91;101093.91;10485763;28;19991;-71
2023/02/22 10:52:25;;;;;;;;;;;;;;;12.94;90.67;101079.00;10469882;28;19924;-71
2023/02/22 10:57:31;;;;;;;;;;;;;;;11.98;88.79;101081.31;10484981;28;19974;-71
2023/02/22 11:02:34;;;;;;;;;;;;;;;11.94;87.90;101077.19;10518436;28;19931;-71
2023/02/22 11:07:36;;;;;;;;;;;;;;;12.85;87.31;101076.97;10518264;28;19931;-70
2023/02/22 11:12:40;;;;;;;;;;;;;;;13.11;83.33;101061.31;10518064;28;20371;-71
2023/02/22 11:17:42;;;;;;;;;;;;;;;13.27;80.65;101062.03;10502285;28;20313;-70
2023/02/22 11:22:44;;;;;;;;;;;;;;;14.51;80.12;101057.31;10517080;28;19928;-71
2023/02/22 11:27:47;;;;;;;;;;;;;;;15.12;77.27;101056.56;10501101;28;20296;-70
2023/02/22 11:32:51;;;;;;;;;;;;;;;14.93;73.24;101062.31;10517224;28;19928;-71
2023/02/22 11:38:08;;;;;;;;;;;;;;;14.84;74.42;101054.13;10502126;28;19925;-70
2023/02/22 11:43:17;;;;;;;;;;;;;;;13.78;71.98;101053.47;10516639;28;20375;-71
2023/02/22 11:48:22;;;;;;;;;;;;;;;13.68;71.66;101042.72;10517193;28;19930;-71
2023/02/22 11:53:43;;;;;;;;;;;;;;;14.54;71.74;101043.94;10501402;28;19925;-70
2023/02/22 11:58:47;;;;;;;;;;;;;;;14.93;71.34;101028.03;10500974;28;19924;-70
2023/02/22 12:03:52;;;;;;;;;;;;;;;15.61;67.71;101032.66;10515915;28;19924;-71
2023/02/22 12:09:07;;;;;;;;;;;;;;;16.42;63.89;101022.16;10500058;28;19987;-71
2023/02/22 12:14:18;;;;;;;;;;;;;;;16.28;62.98;101015.31;10500535;28;19974;-71
2023/02/22 12:19:24;;;;;;;;;;;;;;;16.27;65.73;101016.28;10497639;28;19924;-71
2023/02/22 12:24:29;;;;;;;;;;;;;;;15.58;67.90;101018.88;10498727;28;20315;-71
2023/02/22 12:29:36;;;;;;;;;;;;;;;16.28;66.53;100998.63;10515556;28;19924;-71
2023/02/22 12:34:49;;;;;;;;;;;;;;;17.08;62.34;100990.47;10514080;28;19950;-71
2023/02/22 12:40:00;;;;;;;;;;;;;;;16.06;63.94;100975.69;10515126;28;19925;-71
2023/02/22 12:45:05;;;;;;;;;;;;;;;15.17;63.88;100975.31;10498769;28;19987;-71
2023/02/22 12:50:12;;;;;;;;;;;;;;;14.17;71.41;100972.75;10514300;28;19928;-71
2023/02/22 12:55:16;;;;;;;;;;;;;;;14.02;69.32;100982.56;10514638;28;19931;-71
2023/02/22 13:00:25;;;;;;;;;;;;;;;13.97;71.67;100970.66;10498600;28;20371;-70
2023/02/22 13:05:29;;;;;;;;;;;;;;;13.70;71.12;100976.84;10498999;28;19925;-71
2023/02/22 13:10:36;;;;;;;;;;;;;;;14.78;68.87;100980.75;10514669;28;19924;-70
2023/02/22 13:15:44;;;;;;;;;;;;;;;13.52;72.21;100982.41;10514378;28;19925;-71
2023/02/22 13:20:56;;;;;;;;;;;;;;;13.68;72.69;100995.34;10498168;28;19932;-71
2023/02/22 13:26:18;;;;;;;;;;;;;;;13.65;72.94;100992.97;10498650;28;19929;-71
2023/02/22 13:31:29;;;;;;;;;;;;;;;13.79;72.10;100993.81;10470075;28;19925;-71
2023/02/22 13:36:50;;;;;;;;;;;;;;;13.85;70.14;100991.63;10497948;28;20318;-71
2023/02/22 13:42:12;;;;;;;;;;;;;;;13.28;72.55;100984.00;10498280;28;19973;-70
2023/02/22 13:47:24;;;;;;;;;;;;;;;13.35;72.72;100986.16;10499077;28;19929;-71
2023/02/22 13:52:27;;;;;;;;;;;;;;;13.16;72.46;100973.34;10506324;28;19928;-71
2023/02/22 13:57:38;;;;;;;;;;;;;;;13.08;74.67;100965.13;10521453;28;19932;-71
2023/02/22 14:02:49;;;;;;;;;;;;;;;12.26;77.99;100979.94;10505184;28;19928;-71
2023/02/22 14:07:52;;;;;;;;;;;;;;;12.63;79.63;100980.28;10505442;28;19924;-72
2023/02/22 14:12:54;;;;;;;;;;;;;;;12.55;83.95;100985.16;10505411;28;19978;-70
2023/02/22 14:18:00;;;;;;;;;;;;;;;12.39;88.45;100983.50;10503353;28;20311;-71
2023/02/22 14:23:21;;;;;;;;;;;;;;;11.91;94.67;100982.91;10519908;28;19974;-70
2023/02/22 14:28:42;;;;;;;;;;;;;;;11.93;92.83;100993.31;10499225;28;19928;-70
2023/02/22 14:34:04;;;;;;;;;;;;;;;11.99;93.59;100988.56;10468715;28;19943;-71
2023/02/22 14:39:18;;;;;;;;;;;;;;;12.05;95.49;100980.31;10484499;28;19961;-71
2023/02/22 14:44:25;;;;;;;;;;;;;;;11.89;97.24;100984.75;10500380;28;20346;-71
2023/02/22 14:49:27;;;;;;;;;;;;;;;11.74;99.13;100998.81;10482608;28;20019;-70
2023/02/22 14:55:03;;;;;;;;;;;;;;;11.65;96.18;100998.41;10482839;28;20380;-70
2023/02/22 15:00:19;;;;;;;;;;;;;;;11.29;97.51;101002.19;10489981;28;19963;-70
2023/02/22 15:05:21;;;;;;;;;;;;;;;11.38;100.00;101007.84;10517623;28;20290;-70
2023/02/22 15:10:36;;;;;;;;;;;;;;;10.85;100.00;101010.78;10502675;28;19932;-70
2023/02/22 15:15:42;;;;;;;;;;;;;;;10.89;100.00;101014.94;10498688;28;19932;-70
2023/02/22 15:20:47;;;;;;;;;;;;;;;10.90;100.00;101021.84;10499433;28;19981;-70
2023/02/22 15:25:49;;;;;;;;;;;;;;;10.81;100.00;101011.91;10500337;28;19931;-71
2023/02/22 15:30:51;;;;;;;;;;;;;;;10.99;100.00;101006.56;10501279;28;19928;-70
2023/02/22 15:35:55;;;;;;;;;;;;;;;10.66;100.00;101010.97;10497385;28;19928;-71
2023/02/22 15:40:58;;;;;;;;;;;;;;;10.54;100.00;101014.22;10514674;28;19924;-70
2023/02/22 15:46:00;;;;;;;;;;;;;;;10.50;100.00;101021.41;10508191;28;20375;-71
2023/02/22 15:51:08;;;;;;;;;;;;;;;10.55;100.00;101024.63;10498272;28;20015;-71
2023/02/22 15:56:11;;;;;;;;;;;;;;;10.23;100.00;101028.91;10496416;28;19935;-71
2023/02/22 16:01:17;;;;;;;;;;;;;;;10.10;100.00;101041.78;10480787;28;20364;-70
2023/02/22 16:06:32;;;;;;;;;;;;;;;10.42;100.00;101034.03;10483652;28;19925;-70
2023/02/22 16:11:37;;;;;;;;;;;;;;;10.32;100.00;101036.34;10512416;28;20011;-70
2023/02/22 16:16:40;;;;;;;;;;;;;;;10.31;100.00;101036.38;10480016;28;20386;-70
2023/02/22 16:21:52;;;;;;;;;;;;;;;10.17;100.00;101043.16;10497242;28;20453;-70
2023/02/22 16:27:09;;;;;;;;;;;;;;;10.17;100.00;101039.69;10481303;28;19974;-70
2023/02/22 16:32:14;;;;;;;;;;;;;;;10.14;100.00;101042.50;10497910;28;20261;-71
2023/02/22 16:37:23;;;;;;;;;;;;;;;10.28;100.00;101041.75;10496861;28;19939;-70
2023/02/22 16:42:25;;;;;;;;;;;;;;;9.94;100.00;101048.75;10512813;28;20023;-70
2023/02/22 16:47:27;;;;;;;;;;;;;;;9.92;100.00;101055.78;10501103;28;19932;-71
2023/02/22 16:52:29;;;;;;;;;;;;;;;10.03;100.00;101054.31;10496745;28;19925;-71
2023/02/22 16:57:32;;;;;;;;;;;;;;;10.06;100.00;101058.56;10495623;28;19925;-71
2023/02/22 17:02:34;;;;;;;;;;;;;;;9.81;100.00;101059.78;10498499;28;19925;-71
2023/02/22 17:07:37;;;;;;;;;;;;;;;10.01;100.00;101058.78;10481204;28;20038;-70
2023/02/22 17:12:42;;;;;;;;;;;;;;;9.88;100.00;101060.34;10496695;28;19925;-71
2023/02/22 17:17:44;;;;;;;;;;;;;;;9.94;100.00;101060.03;10498265;28;19936;-70
2023/02/22 17:22:47;;;;;;;;;;;;;;;9.74;100.00;101066.25;10502483;28;19947;-70
2023/02/22 17:27:49;;;;;;;;;;;;;;;9.63;100.00;101077.25;10522714;28;19924;-71
2023/02/22 17:32:51;;;;;;;;;;;;;;;9.60;100.00;101087.88;10505184;28;19925;-70
2023/02/22 17:37:53;;;;;;;;;;;;;;;9.79;100.00;101089.56;10506835;28;19928;-70
2023/02/22 17:42:56;;;;;;;;;;;;;;;9.43;100.00;101101.75;10506771;28;19928;-71
2023/02/22 17:47:58;;;;;;;;;;;;;;;9.47;100.00;101105.06;10505050;28;19978;-70
2023/02/22 17:53:02;;;;;;;;;;;;;;;9.67;100.00;101104.94;10505452;28;19925;-70
2023/02/22 17:58:04;;;;;;;;;;;;;;;9.60;100.00;101103.53;10505215;28;19947;-70
2023/02/22 18:03:08;;;;;;;;;;;;;;;9.48;100.00;101110.22;10499424;28;20279;-70
2023/02/22 18:08:10;;;;;;;;;;;;;;;9.38;100.00;101121.16;10519931;28;20016;-70
2023/02/22 18:13:15;;;;;;;;;;;;;;;9.58;100.00;101120.22;10518121;28;19925;-70
2023/02/22 18:18:17;;;;;;;;;;;;;;;9.57;100.00;101113.31;10504117;28;19967;-70
2023/02/22 18:23:21;;;;;;;;;;;;;;;9.39;100.00;101120.25;10503180;28;19928;-70
2023/02/22 18:28:23;;;;;;;;;;;;;;;9.22;100.00;101126.28;10503985;28;19931;-70
2023/02/22 18:33:26;;;;;;;;;;;;;;;9.27;100.00;101124.28;10504344;28;19936;-70
2023/02/22 18:38:28;;;;;;;;;;;;;;;9.27;100.00;101127.75;10520019;28;19932;-70
2023/02/22 18:43:30;;;;;;;;;;;;;;;9.20;100.00;101122.88;10503955;28;19925;-70
2023/02/22 18:48:33;;;;;;;;;;;;;;;9.39;100.00;101112.41;10504102;28;19970;-70
2023/02/22 18:53:36;;;;;;;;;;;;;;;9.25;100.00;101123.53;10503095;28;20276;-70
2023/02/22 18:58:38;;;;;;;;;;;;;;;9.18;100.00;101112.50;10518663;28;20341;-70
2023/02/22 19:03:40;;;;;;;;;;;;;;;9.07;100.00;101120.81;10519190;28;19925;-70
2023/02/22 19:08:43;;;;;;;;;;;;;;;9.24;100.00;101122.66;10502699;28;19978;-70
2023/02/22 19:13:46;;;;;;;;;;;;;;;9.43;100.00;101119.16;10502500;28;20280;-70
2023/02/22 19:18:48;;;;;;;;;;;;;;;9.16;100.00;101124.78;10485163;28;19974;-69
2023/02/22 19:23:50;;;;;;;;;;;;;;;9.21;100.00;101128.03;10502716;28;19924;-70
2023/02/22 19:28:53;;;;;;;;;;;;;;;9.29;100.00;101125.91;10501989;28;19931;-70
2023/02/22 19:33:59;;;;;;;;;;;;;;;9.25;100.00;101134.81;10517814;28;19935;-70
2023/02/22 19:39:02;;;;;;;;;;;;;;;9.05;100.00;101138.34;10517463;28;19974;-70
2023/02/22 19:44:04;;;;;;;;;;;;;;;9.26;100.00;101135.66;10500339;28;20430;-70
2023/02/22 19:49:06;;;;;;;;;;;;;;;9.47;100.00;101136.41;10501477;28;19932;-70
2023/02/22 19:54:11;;;;;;;;;;;;;;;9.16;100.00;101134.38;10500787;28;19924;-70
2023/02/22 19:59:15;;;;;;;;;;;;;;;9.14;100.00;101144.91;10516788;28;19979;-70
2023/02/22 20:04:20;;;;;;;;;;;;;;;9.34;100.00;101149.19;10500434;28;20375;-70
2023/02/22 20:09:23;;;;;;;;;;;;;;;9.18;100.00;101151.69;10515453;28;19971;-70
2023/02/22 20:14:27;;;;;;;;;;;;;;;9.19;100.00;101149.91;10500675;28;19928;-70
2023/02/22 20:19:29;;;;;;;;;;;;;;;9.16;100.00;101156.13;10499112;28;19924;-70
2023/02/22 20:24:32;;;;;;;;;;;;;;;9.20;100.00;101155.06;10499685;28;19924;-70
2023/02/22 20:29:34;;;;;;;;;;;;;;;9.09;100.00;101159.94;10499477;28;19936;-70
2023/02/22 20:34:36;;;;;;;;;;;;;;;9.29;100.00;101159.88;10499207;28;20272;-70
2023/02/22 20:39:38;;;;;;;;;;;;;;;9.13;100.00;101171.09;10499665;28;19928;-69
2023/02/22 20:44:41;;;;;;;;;;;;;;;9.35;100.00;101163.97;10499434;28;19924;-70
2023/02/22 20:49:44;;;;;;;;;;;;;;;9.05;100.00;101169.69;10499615;28;19928;-69
2023/02/22 20:54:46;;;;;;;;;;;;;;;9.27;100.00;101176.53;10497162;28;20310;-70
2023/02/22 20:59:48;;;;;;;;;;;;;;;9.08;100.00;101176.53;10480433;22;19932;-70
2023/02/22 21:04:51;;;;;;;;;;;;;;;9.21;100.00;101177.69;10456913;28;19978;-69
2023/02/22 21:09:53;;;;;;;;;;;;;;;9.19;100.00;101187.34;10439356;28;20038;-70
2023/02/22 21:14:55;;;;;;;;;;;;;;;9.25;100.00;101188.84;10456548;28;19924;-70
2023/02/22 21:19:57;;;;;;;;;;;;;;;9.14;100.00;101185.84;10457364;28;19929;-70
2023/02/22 21:25:00;;;;;;;;;;;;;;;9.18;100.00;101183.03;10456655;28;19925;-70
2023/02/22 21:30:02;;;;;;;;;;;;;;;9.32;100.00;101181.56;10456445;28;19931;-70
2023/02/22 21:35:04;;;;;;;;;;;;;;;9.03;100.00;101181.13;10437899;28;19925;-70
2023/02/22 21:40:10;;;;;;;;;;;;;;;9.05;100.00;101187.13;10456966;28;19929;-70
2023/02/22 21:45:17;;;;;;;;;;;;;;;9.07;100.00;101188.72;10470500;28;19924;-69
2023/02/22 21:50:19;;;;;;;;;;;;;;;9.21;100.00;101187.25;10455518;28;19931;-70
2023/02/22 21:55:21;;;;;;;;;;;;;;;9.26;100.00;101188.78;10455284;28;20326;-70
2023/02/22 22:00:36;;;;;;;;;;;;;;;9.03;100.00;101189.81;10438141;28;19940;-70
2023/02/22 22:05:39;;;;;;;;;;;;;;;9.27;100.00;101184.38;10453649;28;19929;-70
2023/02/22 22:10:41;;;;;;;;;;;;;;;9.33;100.00;101181.50;10475560;28;19932;-69
2023/02/22 22:15:43;;;;;;;;;;;;;;;9.24;100.00;101174.91;10462306;28;19925;-70
2023/02/22 22:20:50;;;;;;;;;;;;;;;9.32;100.00;101164.13;10463858;28;20004;-69
2023/02/22 22:26:00;;;;;;;;;;;;;;;9.22;100.00;101184.59;10461693;28;19936;-70
2023/02/22 22:31:03;;;;;;;;;;;;;;;9.35;100.00;101171.81;10462799;28;19929;-70
2023/02/22 22:36:06;;;;;;;;;;;;;;;9.27;100.00;101176.53;10462269;28;19924;-70
2023/02/22 22:41:10;;;;;;;;;;;;;;;9.37;100.00;101176.97;10477859;28;20364;-70
2023/02/22 22:46:13;;;;;;;;;;;;;;;9.39;100.00;101175.97;10478188;28;19932;-70
2023/02/22 22:51:18;;;;;;;;;;;;;;;9.30;100.00;101174.63;10461844;28;19932;-70
2023/02/22 22:56:28;;;;;;;;;;;;;;;9.30;100.00;101174.63;10462631;28;19954;-70
2023/02/22 23:01:33;;;;;;;;;;;;;;;9.21;100.00;101184.66;10482584;28;19924;-70
2023/02/22 23:06:37;;;;;;;;;;;;;;;8.97;100.00;101189.22;10462193;28;19975;-69
2023/02/22 23:11:44;;;;;;;;;;;;;;;8.75;100.00;101195.38;10459257;28;19924;-70
2023/02/22 23:16:47;;;;;;;;;;;;;;;8.83;100.00;101184.63;10460685;28;19979;-70
2023/02/22 23:21:49;;;;;;;;;;;;;;;8.96;100.00;101191.00;10461348;28;19951;-70
2023/02/22 23:26:51;;;;;;;;;;;;;;;8.70;100.00;101187.75;10459911;28;19932;-70
2023/02/22 23:31:53;;;;;;;;;;;;;;;8.73;100.00;101181.56;10459204;28;19929;-70
2023/02/22 23:36:56;;;;;;;;;;;;;;;9.04;100.00;101182.81;10461058;28;19952;-69
2023/02/22 23:41:58;;;;;;;;;;;;;;;9.09;100.00;101180.84;10460701;28;19924;-70
2023/02/22 23:47:02;;;;;;;;;;;;;;;8.83;100.00;101188.06;10459119;28;19925;-70
2023/02/22 23:52:05;;;;;;;;;;;;;;;8.59;100.00;101183.91;10459065;28;20326;-70
2023/02/22 23:57:07;;;;;;;;;;;;;;;8.90;100.00;101196.47;10441149;28;20350;-70
